Für Piloten

Informationen für Piloten zum Flugplatz Borken-Hoxfeld
Hier findest Du alle relevanten Informationen, die Du als Pilot benötigst, um Borken-Hoxfeld anzufliegen.

Flugplatz: Borken-Hoxfeld ICAO-Code: EDLY
Borken-Hoxfeld Info: 122,930 Mhz
GAFOR Gebiet: 32
Platzrunde: Motorflug; -> Südplatzrunde; Segelflug; -> Nordplatzrunde;
Landegebühr: z.Zt. 5,00 Euro
Platzhöhe: 48m üMSL
Pisten: 12/30 – 740 m x 30 m, GRAS
Betriebszeiten: PPR (in den Sommermonaten Mittagspause beachten)

 

Wetterforecast:

Available data for EDDL from the past 2 hours
DUESSELDORF
Metar
EDDL 012350Z 36001KT 9000 -DZ FEW006 BKN011 06/05 Q1020 TEMPO BKN008

23:50 UTC

Wind: 360° 1kt

Visibility: 9000 m

Sky: FEW 600 ft

Temp: 6 deg C / 42.8 deg F

Dewpoint: 5 deg C / 41 deg F

Pressure: 1020 hPa

TAF
TAF EDDL 012300Z 0200/0306 VRB03KT 7000 BKN011 TEMPO 0200/0211 3000 BR BKN004 TEMPO 0211/0217 BKN015 BECMG 0218/0220 16009KT

Alle obigen Informationen ersetzen nicht die vorgeschriebene, persönliche Flugvorbereitung.